Annabella — PF3063 — position and weather

sailwx.info

Track history (hours):
 
Tides and Currents Weather Stations Pressure Air Temp Water Temp Dewpoint Dewpoint Depression Visibility Wind Speed Wind Dir Waves Ship Positions

Annabella

Last reported at 2014-Aug-28 05:32 UTC. Time now 2014-Sep-03 04:48 UTC.
Position N 37°24' W 000°53'.

Length 20 m; draft 2.6 m.

Type: Sailing vessel. MMSI: 244030764.

Date/timePositionNaut miles runAvg speedWind from/ knotsBaromVisibWave heightAir tempDewpointWater temp
2014-Aug-28 05:32N 37°24' W 000°53'7 7.5
2014-Aug-28 04:33N 37°28' W 000°45'9 7.4
2014-Aug-28 03:19N 37°34' W 000°36'7 7.4
2014-Aug-28 02:20N 37°38' W 000°28'6 7.7
2014-Aug-28 01:31N 37°43' W 000°23'33 7.5
2014-Aug-27 21:09N 38°03' E 000°09'20 7.5
2014-Aug-27 18:30N 38°15' E 000°30'8 7.6
2014-Aug-27 17:24N 38°20' E 000°38'10 7.6
2014-Aug-27 16:07N 38°26' E 000°48'20 7.6
2014-Aug-27 13:29N 38°38' E 001°09'10 7.4
2014-Aug-27 12:08N 38°44' E 001°18'4 6.9
2014-Aug-27 11:33N 38°47' E 001°22'3 0.9
2014-Aug-27 08:33N 38°48' E 001°25'6 0.2
2014-Aug-25 21:32N 38°52' E 001°19'1 0.1
2014-Aug-25 11:21N 38°51' E 001°20'8 4.5
2014-Aug-25 09:33N 38°53' E 001°30'7 6.8
2014-Aug-25 08:33N 38°59' E 001°35'5 0.3
2014-Aug-24 17:14N 39°02' E 001°38'5 7.3
2014-Aug-24 16:33N 39°05' E 001°43'7 7.2
2014-Aug-24 15:33N 39°10' E 001°51'7 7.3
2014-Aug-24 14:33N 39°14' E 001°58'7 7.4
2014-Aug-24 13:33N 39°20' E 002°05'7 7.2
2014-Aug-24 12:33N 39°25' E 002°11'7 7.4
2014-Aug-24 11:33N 39°29' E 002°19'3 3.1
2014-Aug-24 10:27N 39°32' E 002°22'2 0.0
2014-Aug-22 14:26N 39°30' E 002°20'7 8.4
2014-Aug-22 13:33N 39°25' E 002°14'8 8.2
2014-Aug-22 12:33N 39°18' E 002°08'8 8.1
2014-Aug-22 11:34N 39°13' E 001°60'9 8.0
2014-Aug-22 10:23N 39°06' E 001°52'  
2014-Aug-19 03:31N 38°45' E 001°26'0 0.0
2014-Aug-18 23:30N 38°45' E 001°26'0 0.1
2014-Aug-18 19:33N 38°45' E 001°25'7 6.8
2014-Aug-18 18:33N 38°51' E 001°29'8 8.2
2014-Aug-18 17:33N 38°56' E 001°37'8 7.8
2014-Aug-18 16:33N 39°01' E 001°45'7 7.4
2014-Aug-18 15:33N 39°06' E 001°53'8 7.8
2014-Aug-18 14:33N 39°10' E 002°01'8 7.5
2014-Aug-18 13:33N 39°14' E 002°10'8 8.1
2014-Aug-18 12:33N 39°19' E 002°18'9 8.7
2014-Aug-18 11:33N 39°24' E 002°27'7 7.0
2014-Aug-18 10:33N 39°29' E 002°34'6 5.8
2014-Aug-18 09:29N 39°34' E 002°38'0 0.0
2014-Aug-18 08:32N 39°34' E 002°38'0 0.0
2014-Aug-18 07:29N 39°34' E 002°38'0 0.0
2014-Aug-18 06:32N 39°34' E 002°38'  
Track history (hours):
 
Tides and Currents Weather Stations Pressure Air Temp Water Temp Dewpoint Dewpoint Depression Visibility Wind Speed Wind Dir Waves Ship Positions

Annabella

Last reported at 2014-Aug-28 05:32 UTC. Time now 2014-Sep-03 04:48 UTC.
Position N 37°24' W 000°53'.

Length 20 m; draft 2.6 m.

Type: Sailing vessel. MMSI: 244030764.

Date/timePositionNaut miles runAvg speedWind from/ knotsBaromVisibWave heightAir tempDewpointWater temp
2014-Aug-28 05:32N 37°24' W 000°53'7 7.5
2014-Aug-28 04:33N 37°28' W 000°45'9 7.4
2014-Aug-28 03:19N 37°34' W 000°36'7 7.4
2014-Aug-28 02:20N 37°38' W 000°28'6 7.7
2014-Aug-28 01:31N 37°43' W 000°23'33 7.5
2014-Aug-27 21:09N 38°03' E 000°09'20 7.5
2014-Aug-27 18:30N 38°15' E 000°30'8 7.6
2014-Aug-27 17:24N 38°20' E 000°38'10 7.6
2014-Aug-27 16:07N 38°26' E 000°48'20 7.6
2014-Aug-27 13:29N 38°38' E 001°09'10 7.4
2014-Aug-27 12:08N 38°44' E 001°18'4 6.9
2014-Aug-27 11:33N 38°47' E 001°22'3 0.9
2014-Aug-27 08:33N 38°48' E 001°25'6 0.2
2014-Aug-25 21:32N 38°52' E 001°19'1 0.1
2014-Aug-25 11:21N 38°51' E 001°20'8 4.5
2014-Aug-25 09:33N 38°53' E 001°30'7 6.8
2014-Aug-25 08:33N 38°59' E 001°35'5 0.3
2014-Aug-24 17:14N 39°02' E 001°38'5 7.3
2014-Aug-24 16:33N 39°05' E 001°43'7 7.2
2014-Aug-24 15:33N 39°10' E 001°51'7 7.3
2014-Aug-24 14:33N 39°14' E 001°58'7 7.4
2014-Aug-24 13:33N 39°20' E 002°05'7 7.2
2014-Aug-24 12:33N 39°25' E 002°11'7 7.4
2014-Aug-24 11:33N 39°29' E 002°19'3 3.1
2014-Aug-24 10:27N 39°32' E 002°22'2 0.0
2014-Aug-22 14:26N 39°30' E 002°20'7 8.4
2014-Aug-22 13:33N 39°25' E 002°14'8 8.2
2014-Aug-22 12:33N 39°18' E 002°08'8 8.1
2014-Aug-22 11:34N 39°13' E 001°60'9 8.0
2014-Aug-22 10:23N 39°06' E 001°52'  
2014-Aug-19 03:31N 38°45' E 001°26'0 0.0
2014-Aug-18 23:30N 38°45' E 001°26'0 0.1
2014-Aug-18 19:33N 38°45' E 001°25'7 6.8
2014-Aug-18 18:33N 38°51' E 001°29'8 8.2
2014-Aug-18 17:33N 38°56' E 001°37'8 7.8
2014-Aug-18 16:33N 39°01' E 001°45'7 7.4
2014-Aug-18 15:33N 39°06' E 001°53'8 7.8
2014-Aug-18 14:33N 39°10' E 002°01'8 7.5
2014-Aug-18 13:33N 39°14' E 002°10'8 8.1
2014-Aug-18 12:33N 39°19' E 002°18'9 8.7
2014-Aug-18 11:33N 39°24' E 002°27'7 7.0
2014-Aug-18 10:33N 39°29' E 002°34'6 5.8
2014-Aug-18 09:29N 39°34' E 002°38'0 0.0
2014-Aug-18 08:32N 39°34' E 002°38'0 0.0
2014-Aug-18 07:29N 39°34' E 002°38'0 0.0
2014-Aug-18 06:32N 39°34' E 002°38'  

Dump ship's entire track history